Meacham, OR

5:26 PM PDT on October 25, 2014 (GMT -0700)
Meacham | Change Station
CLOSE
Current Station
Airport
Location: Meacham,
Elevation: 3720 ft
Nearby Weather Stations

Elev 3720 ft 45.51 °N, 118.42 °W | Updated 30 minutes ago

Overcast
Overcast
63 °F
Feels Like 63 °F
N
0
Wind Variable Wind from North

Today
High -- | Low -- °F
--% Chance of Precip.
Yesterday
High -- | Low -- °F
Precip. -- in
7:23 AM 5:51 PM
Waxing Crescent, 5% visible
Pressure 29.59 in
Visibility 10.0 miles
Clouds Overcast 8500 ft
Dew Point 31 °F
Humidity 30%
Rainfall 0.00 in
Snow Depth 2 in
UV 0 out of 12
Pollen 1.70 out of 12
Air Quality Not available.
Flu Activity Sporadic
METAR KMEH 252356Z AUTO 00000KT 10SM OVC085 17/M01 A2963 RMK AO2 SLP018 60000 T01721006 10211 20161 53006

More Conditions Fewer Conditions

Pressure 29.59 in
Visibility 10.0 miles
Clouds Overcast 8500 ft
Dew Point 31 °F
Humidity 30%
Rainfall 0.00 in
Snow Depth 2 in
UV 0 out of 12
Pollen 1.70 out of 12
Air Quality Not available.
Flu Activity Sporadic
METAR KMEH 252356Z AUTO 00000KT 10SM OVC085 17/M01 A2963 RMK AO2 SLP018 60000 T01721006 10211 20161 53006

More Conditions Fewer Conditions

10-Day Weather Forecast

Almanac

Astronomy

Oct. 25, 2014 Rise Set
Actual Time 7:23 AM PDT 5:51 PM PDT
Civil Twilight 6:53 AM PDT 6:21 PM PDT
Nautical Twilight 6:18 AM PDT 6:56 PM PDT
Astronomical Twilight 5:44 AM PDT 7:30 PM PDT
Moon 9:11 AM PDT (10/25) 7:13 PM PDT (10/25)
Length of Visible Light 11h 28m
Length of Day
10h 27m
Tomorrow will be 2m 57s shorter.
Waxing Crescent, 5% of the Moon is Illuminated
Today
Waxing Crescent
Oct 30
First Quarter
Nov 6
Full
Nov 14
Last Quarter
Nov 22
New

Today's Extremes

State Highs State Lows

Community

WunderPhotos

Upload Photos

1,765,039 photos uploaded!

Nearby

Snow Depth

Station Depth Elevation
Emigrant Springs 2 in 3925 ft
Lucky Strike 2 in 5050 ft
Eilertson Meadows 0 in 5400 ft
Gold Center 0 in 5340 ft
Madison Butte 0 in 5250 ft

Earthquake Activity

City Distance Mag. Time & Date
No recent earthquake activity has been reported nearby.
Minimum magnitude displayed is 2.5.

Coastal Water Temperatures

Place Temperature
No Stations Reporting

Nearby Weather Stations